createdAt,value
2018-03-24T00:01:09.767Z,26.00
2018-03-24T00:03:38.801Z,21.70
2018-03-24T00:06:07.076Z,26.07
2018-03-24T00:08:35.332Z,24.77
2018-03-24T00:11:03.596Z,25.70
2018-03-24T00:13:32.711Z,32.57
2018-03-24T00:16:00.975Z,42.30
2018-03-24T00:18:29.260Z,24.27
2018-03-24T00:20:57.530Z,23.00
2018-03-24T00:23:25.779Z,22.60
2018-03-24T00:25:54.816Z,24.93
2018-03-24T00:28:23.118Z,28.43
2018-03-24T00:30:51.407Z,21.70
2018-03-24T00:33:19.658Z,24.20
2018-03-24T00:35:47.913Z,26.67
2018-03-24T00:38:16.164Z,27.10
2018-03-24T00:40:45.215Z,27.90
2018-03-24T00:43:13.477Z,27.83
2018-03-24T00:45:41.748Z,31.57
2018-03-24T00:48:10.023Z,32.93
2018-03-24T00:50:38.280Z,22.30
2018-03-24T00:53:06.556Z,22.37
2018-03-24T00:55:34.813Z,24.97
2018-03-24T00:58:03.832Z,19.60
2018-03-24T01:00:32.120Z,21.40
2018-03-24T01:03:00.364Z,23.40
2018-03-24T01:05:28.632Z,26.37
2018-03-24T01:07:57.691Z,39.20
2018-03-24T01:10:25.971Z,34.40
2018-03-24T01:12:54.244Z,28.43
2018-03-24T01:15:22.501Z,23.93
2018-03-24T01:17:50.780Z,39.83
2018-03-24T01:20:19.033Z,27.73
2018-03-24T01:22:47.287Z,30.87
2018-03-24T01:25:15.567Z,28.37
2018-03-24T01:27:43.835Z,22.93
2018-03-24T01:30:12.892Z,23.17
2018-03-24T01:32:41.155Z,27.63
2018-03-24T01:35:09.443Z,25.23
2018-03-24T01:37:37.705Z,20.60
2018-03-24T01:40:05.977Z,24.47
2018-03-24T01:42:34.223Z,20.17
2018-03-24T01:45:02.480Z,25.17
2018-03-24T01:47:31.547Z,26.30
2018-03-24T01:49:59.804Z,27.00
2018-03-24T01:52:28.123Z,25.10
2018-03-24T01:54:57.144Z,32.80
2018-03-24T01:57:25.395Z,32.67
2018-03-24T01:59:54.443Z,27.53
2018-03-24T02:02:22.716Z,30.60
2018-03-24T02:04:50.974Z,34.23
2018-03-24T02:07:19.250Z,38.97
2018-03-24T02:09:47.504Z,35.07
2018-03-24T02:12:15.755Z,62.50
2018-03-24T02:14:45.547Z,52.13
2018-03-24T02:17:13.804Z,41.53
2018-03-24T02:19:42.077Z,39.92
2018-03-24T02:22:10.353Z,44.80
2018-03-24T02:27:43.143Z,24.03
2018-03-24T02:30:11.414Z,37.43
2018-03-24T02:32:39.684Z,30.60
2018-03-24T02:35:07.948Z,44.03
2018-03-24T02:37:36.988Z,34.13
2018-03-24T02:40:05.279Z,34.57
2018-03-24T02:42:33.518Z,55.17
2018-03-24T02:45:01.896Z,35.53
2018-03-24T02:47:30.169Z,46.40
2018-03-24T02:49:58.431Z,37.53
2018-03-24T02:52:26.708Z,54.07
2018-03-24T02:54:54.965Z,108.43
2018-03-24T02:57:23.988Z,35.60
2018-03-24T02:59:52.269Z,75.97
2018-03-24T03:02:20.549Z,60.13
2018-03-24T03:04:48.804Z,41.63
2018-03-24T03:07:17.083Z,88.40
2018-03-24T03:09:45.345Z,31.80
2018-03-24T03:12:14.367Z,98.27
2018-03-24T03:14:42.645Z,151.50
2018-03-24T03:17:10.927Z,107.27
2018-03-24T03:19:39.185Z,111.63
2018-03-24T03:22:07.479Z,34.60
2018-03-24T03:24:35.737Z,64.77
2018-03-24T03:27:04.115Z,28.13
2018-03-24T03:29:32.369Z,36.10
2018-03-24T03:32:20.184Z,74.07
2018-03-24T03:34:48.455Z,73.70
2018-03-24T03:37:17.500Z,73.87
2018-03-24T03:39:45.776Z,25.70
2018-03-24T03:42:14.020Z,26.73
2018-03-24T03:44:43.091Z,119.37
2018-03-24T03:47:11.369Z,55.80
2018-03-24T03:49:39.625Z,74.20
2018-03-24T03:52:07.880Z,150.90
2018-03-24T03:54:36.162Z,80.13
2018-03-24T03:57:04.419Z,25.60
2018-03-24T03:59:32.680Z,80.20
2018-03-24T04:02:01.730Z,77.33
2018-03-24T04:04:29.990Z,28.77
2018-03-24T04:06:58.237Z,117.10
2018-03-24T04:09:26.633Z,78.73
2018-03-24T04:11:54.921Z,66.70
2018-03-24T04:14:23.168Z,79.00
2018-03-24T04:16:51.443Z,162.47
2018-03-24T04:19:19.703Z,82.00
2018-03-24T04:21:48.727Z,52.63
2018-03-24T04:24:17.003Z,255.37
2018-03-24T04:26:45.260Z,83.53
2018-03-24T04:29:13.553Z,107.40
2018-03-24T04:31:41.816Z,149.30
2018-03-24T04:34:10.122Z,104.67
2018-03-24T04:36:38.404Z,150.07
2018-03-24T04:39:06.660Z,46.97
2018-03-24T04:41:34.920Z,36.27
2018-03-24T04:44:03.192Z,42.90
2018-03-24T04:46:31.445Z,53.63
2018-03-24T04:48:59.728Z,40.17
2018-03-24T04:51:28.757Z,56.27
2018-03-24T04:53:57.021Z,71.37
2018-03-24T04:56:25.292Z,50.37
2018-03-24T04:58:53.602Z,41.73
2018-03-24T05:01:21.965Z,58.43
2018-03-24T05:03:50.271Z,40.07
2018-03-24T05:06:18.539Z,41.27
2018-03-24T05:08:46.789Z,39.60
2018-03-24T05:11:15.064Z,38.60
2018-03-24T05:13:43.329Z,34.33
2018-03-24T05:16:12.352Z,45.13
2018-03-24T05:18:40.614Z,39.20
2018-03-24T05:21:08.885Z,30.47
2018-03-24T05:23:37.144Z,28.33
2018-03-24T05:26:06.176Z,35.10
2018-03-24T05:28:34.464Z,35.20
2018-03-24T05:31:02.720Z,41.70
2018-03-24T05:33:30.992Z,38.90
2018-03-24T05:35:59.365Z,27.53
2018-03-24T05:38:27.617Z,32.70
2018-03-24T05:40:55.890Z,28.13
2018-03-24T05:43:24.943Z,37.60
2018-03-24T05:45:53.197Z,40.90
2018-03-24T05:48:21.443Z,42.43
2018-03-24T05:50:49.717Z,38.97
2018-03-24T05:53:18.831Z,23.73
2018-03-24T05:55:47.093Z,30.33
2018-03-24T05:58:15.359Z,25.20
2018-03-24T06:00:44.386Z,36.20
2018-03-24T06:03:12.672Z,24.73
2018-03-24T06:05:40.931Z,29.93
2018-03-24T06:08:09.195Z,32.20
2018-03-24T06:10:37.511Z,40.53
2018-03-24T06:13:05.724Z,33.90
2018-03-24T06:15:34.875Z,28.30
2018-03-24T06:18:03.127Z,29.00
2018-03-24T06:20:31.397Z,24.43
2018-03-24T06:22:59.672Z,24.93
2018-03-24T06:25:27.927Z,30.00
2018-03-24T06:27:56.943Z,31.33
2018-03-24T06:43:53.671Z,25.93
2018-03-24T06:46:22.062Z,26.50
2018-03-24T06:48:50.348Z,30.67
2018-03-24T06:51:18.613Z,27.50
2018-03-24T06:53:46.871Z,29.00
2018-03-24T06:56:15.128Z,36.83
2018-03-24T06:58:44.160Z,26.17
2018-03-24T07:01:12.427Z,33.27
2018-03-24T07:03:40.688Z,33.07
2018-03-24T07:06:09.724Z,30.43
2018-03-24T07:08:37.982Z,26.40
2018-03-24T07:11:06.244Z,28.63
2018-03-24T07:13:34.524Z,28.07
2018-03-24T07:16:02.786Z,27.93
2018-03-24T07:18:31.802Z,28.10
2018-03-24T07:21:00.120Z,27.53
2018-03-24T07:23:28.377Z,25.17
2018-03-24T07:25:56.636Z,23.75
2018-03-24T07:28:24.900Z,24.43
2018-03-24T07:30:53.174Z,26.70
2018-03-24T07:33:21.504Z,28.17
2018-03-24T07:35:49.838Z,34.28
2018-03-24T07:38:18.322Z,25.77
2018-03-24T07:40:46.667Z,32.70
2018-03-24T07:43:14.948Z,27.70
2018-03-24T07:45:43.977Z,34.65
2018-03-24T07:48:12.223Z,35.83
2018-03-24T07:50:40.516Z,31.67
2018-03-24T07:53:08.776Z,33.43
2018-03-24T07:55:37.051Z,29.37
2018-03-24T07:58:05.331Z,28.40
2018-03-24T08:00:33.604Z,32.23
2018-03-24T08:03:02.635Z,43.17
2018-03-24T08:05:30.906Z,31.90
2018-03-24T08:07:59.164Z,39.30
2018-03-24T08:10:27.432Z,27.87
2018-03-24T08:12:55.742Z,34.73
2018-03-24T08:15:24.103Z,33.83
2018-03-24T08:17:52.460Z,37.50
2018-03-24T08:20:20.794Z,36.40
2018-03-24T08:22:49.102Z,38.53
2018-03-24T08:25:17.434Z,39.80
2018-03-24T08:27:45.777Z,34.00
2018-03-24T08:30:14.130Z,35.00
2018-03-24T08:32:42.407Z,36.80
2018-03-24T08:35:11.442Z,39.10
2018-03-24T08:37:39.720Z,39.83
2018-03-24T08:40:07.984Z,40.97
2018-03-24T08:42:36.274Z,35.47
2018-03-24T08:45:04.528Z,35.13
2018-03-24T08:47:32.782Z,32.20
2018-03-24T08:50:01.857Z,33.47
2018-03-24T08:52:30.084Z,31.83
2018-03-24T08:54:58.367Z,30.53
2018-03-24T08:57:26.903Z,29.63
2018-03-24T08:59:55.179Z,31.85
2018-03-24T09:02:24.215Z,33.17
2018-03-24T09:04:52.509Z,32.97
2018-03-24T09:07:20.772Z,36.27
2018-03-24T09:09:49.065Z,31.90
2018-03-24T09:12:17.344Z,31.10
2018-03-24T09:14:45.620Z,36.10
2018-03-24T09:17:13.876Z,33.73
2018-03-24T09:19:42.142Z,32.80
2018-03-24T09:22:10.473Z,37.80
2018-03-24T09:24:38.683Z,26.77
2018-03-24T09:27:06.968Z,34.33
2018-03-24T09:29:35.253Z,30.47
2018-03-24T09:32:03.525Z,25.87
2018-03-24T09:34:31.793Z,29.23
2018-03-24T09:37:00.101Z,27.60
2018-03-24T09:39:28.443Z,29.12
2018-03-24T09:41:56.712Z,24.30
2018-03-24T09:44:25.763Z,25.50
2018-03-24T09:46:54.031Z,38.60
2018-03-24T09:49:22.320Z,26.10
2018-03-24T09:51:50.595Z,26.83
2018-03-24T09:54:18.881Z,24.30
2018-03-24T09:56:47.155Z,28.67
2018-03-24T09:59:15.470Z,23.40
2018-03-24T10:01:43.720Z,27.40
2018-03-24T10:04:12.773Z,24.33
2018-03-24T10:06:41.040Z,23.27
2018-03-24T10:09:09.333Z,22.30
2018-03-24T10:11:37.620Z,21.63
2018-03-24T10:14:05.880Z,28.60
2018-03-24T10:16:34.200Z,23.37
2018-03-24T10:19:03.253Z,24.07
2018-03-24T10:25:06.779Z,21.30
2018-03-24T10:27:35.060Z,22.40
2018-03-24T10:30:04.131Z,19.17
2018-03-24T10:32:34.160Z,19.83
2018-03-24T10:35:07.344Z,23.50
2018-03-24T10:37:41.285Z,18.43
2018-03-24T10:40:09.553Z,20.63
2018-03-24T10:42:37.819Z,23.53
2018-03-24T10:45:06.114Z,22.52
2018-03-24T10:47:34.380Z,21.10
2018-03-24T10:50:02.648Z,18.40
2018-03-24T10:52:30.933Z,19.87
2018-03-24T10:54:59.290Z,18.43
2018-03-24T10:57:27.544Z,16.70
2018-03-24T10:59:55.828Z,17.27
2018-03-24T11:02:24.104Z,17.30
2018-03-24T11:04:52.364Z,13.80
2018-03-24T11:07:20.657Z,17.00
2018-03-24T11:09:48.925Z,14.90
2018-03-24T11:12:17.200Z,16.93
2018-03-24T11:14:45.485Z,13.83
2018-03-24T11:17:13.757Z,18.17
2018-03-24T11:19:42.016Z,17.50
2018-03-24T11:22:10.305Z,20.13
2018-03-24T11:24:38.563Z,15.07
2018-03-24T11:27:07.608Z,19.17
2018-03-24T11:29:35.888Z,15.20
2018-03-24T11:32:04.149Z,17.00
2018-03-24T11:34:32.524Z,15.77
2018-03-24T11:37:00.819Z,13.27
2018-03-24T11:39:29.171Z,9.40
2018-03-24T11:41:57.432Z,11.53
2018-03-24T11:44:25.723Z,9.07
2018-03-24T11:46:53.975Z,13.23
2018-03-24T11:49:22.271Z,10.70
2018-03-24T11:51:50.536Z,9.77
2018-03-24T11:54:36.830Z,11.37
2018-03-24T11:57:05.101Z,11.07
2018-03-24T11:59:34.139Z,13.00
2018-03-24T12:02:02.415Z,13.30
2018-03-24T12:04:30.675Z,15.07
2018-03-24T12:06:58.934Z,11.63
2018-03-24T12:09:27.223Z,17.20
2018-03-24T12:11:55.495Z,16.23
2018-03-24T12:14:23.795Z,16.83
2018-03-24T12:16:52.076Z,19.23
2018-03-24T12:19:20.339Z,16.33
2018-03-24T12:21:48.608Z,18.93
2018-03-24T12:24:16.880Z,15.37
2018-03-24T12:26:45.153Z,15.00
2018-03-24T12:29:13.420Z,14.23
2018-03-24T12:31:41.685Z,15.20
2018-03-24T12:34:10.773Z,15.70
2018-03-24T12:36:39.797Z,16.20
2018-03-24T12:39:08.072Z,15.90
2018-03-24T12:41:36.353Z,17.87
2018-03-24T12:44:04.617Z,14.90
2018-03-24T12:46:32.897Z,15.13
2018-03-24T12:49:02.020Z,12.00
2018-03-24T12:51:30.374Z,12.60
2018-03-24T12:53:58.640Z,11.10
2018-03-24T12:56:26.917Z,10.30
2018-03-24T12:58:55.171Z,8.70
2018-03-24T13:01:24.212Z,10.70
2018-03-24T13:03:52.503Z,10.20
2018-03-24T13:06:20.766Z,11.52
2018-03-24T13:08:49.019Z,9.10
2018-03-24T13:11:17.308Z,11.80
2018-03-24T13:13:45.564Z,11.57
2018-03-24T13:16:13.833Z,11.83
2018-03-24T13:18:43.007Z,11.27
2018-03-24T13:21:11.285Z,10.63
2018-03-24T13:23:40.309Z,12.60
2018-03-24T13:26:08.588Z,12.20
2018-03-24T13:28:36.843Z,14.43
2018-03-24T13:31:05.878Z,12.60
2018-03-24T13:33:34.151Z,12.50
2018-03-24T13:36:02.424Z,13.10
2018-03-24T13:38:30.679Z,12.07
2018-03-24T13:40:58.966Z,11.97
2018-03-24T13:43:27.228Z,10.70
2018-03-24T13:45:55.492Z,13.00
2018-03-24T13:48:24.543Z,11.30
2018-03-24T13:50:52.805Z,12.47
2018-03-24T13:53:21.164Z,11.97
2018-03-24T13:55:49.448Z,13.30
2018-03-24T13:58:17.712Z,10.33
2018-03-24T14:00:45.979Z,11.73
2018-03-24T14:03:14.255Z,12.30
2018-03-24T14:05:42.520Z,13.47
2018-03-24T14:08:11.544Z,11.90
2018-03-24T14:10:39.836Z,11.03
2018-03-24T14:13:08.096Z,12.77
2018-03-24T14:15:36.373Z,12.47
2018-03-24T14:18:04.647Z,12.00
2018-03-24T14:20:32.927Z,11.60
2018-03-24T14:23:01.200Z,11.67
2018-03-24T14:25:29.476Z,9.60
2018-03-24T14:27:57.760Z,11.83
2018-03-24T14:30:26.040Z,11.23
2018-03-24T14:32:54.319Z,9.70
2018-03-24T14:35:22.614Z,12.80
2018-03-24T14:37:50.883Z,11.53
2018-03-24T14:40:19.157Z,12.70
2018-03-24T14:42:47.424Z,12.73
2018-03-24T14:45:15.691Z,11.77
2018-03-24T14:47:43.963Z,15.57
2018-03-24T14:50:12.246Z,12.30
2018-03-24T14:52:40.499Z,11.53
2018-03-24T14:55:08.794Z,12.10
2018-03-24T14:57:37.049Z,11.47
2018-03-24T15:00:05.307Z,12.33
2018-03-24T15:02:34.354Z,13.93
2018-03-24T15:05:02.624Z,11.40
2018-03-24T15:07:30.902Z,11.77
2018-03-24T15:09:59.176Z,11.60
2018-03-24T15:12:27.462Z,10.10
2018-03-24T15:14:55.723Z,14.30
2018-03-24T15:17:23.993Z,11.30
2018-03-24T15:19:52.256Z,11.37
2018-03-24T15:22:20.522Z,10.70
2018-03-24T15:24:48.795Z,8.60
2018-03-24T15:27:17.849Z,12.63
2018-03-24T15:30:03.880Z,10.73
2018-03-24T15:32:50.615Z,10.97
2018-03-24T15:35:46.512Z,11.83
2018-03-24T15:38:15.543Z,10.17
2018-03-24T15:40:43.814Z,9.77
2018-03-24T15:43:12.153Z,10.63
2018-03-24T15:45:40.391Z,9.50
2018-03-24T15:48:08.743Z,10.60
2018-03-24T15:50:37.044Z,9.20
2018-03-24T15:53:05.295Z,9.90
2018-03-24T15:55:33.647Z,10.73
2018-03-24T15:58:01.973Z,9.20
2018-03-24T16:00:30.249Z,9.43
2018-03-24T16:02:58.510Z,10.30
2018-03-24T16:05:26.804Z,10.10
2018-03-24T16:07:55.060Z,9.23
2018-03-24T16:10:23.360Z,7.97
2018-03-24T16:12:51.732Z,10.67
2018-03-24T16:15:20.014Z,9.63
2018-03-24T16:17:48.273Z,9.30
2018-03-24T16:20:16.635Z,9.87
2018-03-24T16:22:44.940Z,8.47
2018-03-24T16:25:13.196Z,8.47
2018-03-24T16:27:41.475Z,8.80
2018-03-24T16:30:09.739Z,8.53
2018-03-24T16:32:37.999Z,8.37
2018-03-24T16:35:06.278Z,8.90
2018-03-24T16:37:34.556Z,8.63
2018-03-24T16:40:02.816Z,9.70
2018-03-24T16:42:31.864Z,8.63
2018-03-24T16:45:00.136Z,10.40
2018-03-24T16:47:28.442Z,9.90
2018-03-24T16:49:56.720Z,9.77
2018-03-24T16:52:24.988Z,7.90
2018-03-24T16:54:53.320Z,9.60
2018-03-24T16:57:21.597Z,9.37
2018-03-24T16:59:49.860Z,10.13
2018-03-24T17:02:18.119Z,9.90
2018-03-24T17:04:47.194Z,10.20
2018-03-24T17:07:15.468Z,11.47
2018-03-24T17:09:43.737Z,10.27
2018-03-24T17:12:12.016Z,9.57
2018-03-24T17:14:40.318Z,11.50
2018-03-24T17:17:09.362Z,10.23
2018-03-24T17:19:37.657Z,11.33
2018-03-24T17:22:05.921Z,11.03
2018-03-24T17:24:34.188Z,9.23
2018-03-24T17:27:02.469Z,9.47
2018-03-24T17:29:30.745Z,8.93
2018-03-24T17:31:59.020Z,11.03
2018-03-24T17:34:27.315Z,10.53
2018-03-24T17:36:55.578Z,10.43
2018-03-24T17:39:23.849Z,9.83
2018-03-24T17:41:52.131Z,12.53
2018-03-24T17:44:20.414Z,11.30
2018-03-24T17:46:48.659Z,11.03
2018-03-24T17:49:16.943Z,13.20
2018-03-24T17:51:45.286Z,7.90
2018-03-24T17:54:14.327Z,8.43
2018-03-24T17:56:42.632Z,9.17
2018-03-24T17:59:10.885Z,8.57
2018-03-24T18:01:39.160Z,11.07
2018-03-24T18:04:07.440Z,10.00
2018-03-24T18:06:35.700Z,11.43
2018-03-24T18:09:03.957Z,10.13
2018-03-24T18:11:32.241Z,10.73
2018-03-24T18:14:00.529Z,9.90
2018-03-24T18:16:28.896Z,10.80
2018-03-24T18:18:57.194Z,11.67
2018-03-24T18:21:25.535Z,10.80
2018-03-24T18:23:53.810Z,11.60
2018-03-24T18:26:22.608Z,14.40
2018-03-24T18:28:50.940Z,14.63
2018-03-24T18:31:19.198Z,12.53
2018-03-24T18:33:47.489Z,12.40
2018-03-24T18:36:15.806Z,13.40
2018-03-24T18:38:44.127Z,10.40
2018-03-24T18:41:12.488Z,11.47
2018-03-24T18:43:40.927Z,11.70
2018-03-24T18:46:09.352Z,10.83
2018-03-24T18:48:38.017Z,12.50
2018-03-24T18:51:06.349Z,13.20
2018-03-24T18:53:36.052Z,12.40
2018-03-24T18:56:04.742Z,11.00
2018-03-24T18:58:33.355Z,14.97
2018-03-24T19:01:03.252Z,8.80
2018-03-24T19:03:31.727Z,13.47
2018-03-24T19:06:01.651Z,9.80
2018-03-24T19:08:31.306Z,10.70
2018-03-24T19:11:02.467Z,10.80
2018-03-24T19:13:32.608Z,10.60
2018-03-24T19:16:02.525Z,10.70
2018-03-24T19:18:32.287Z,11.03
2018-03-24T19:21:02.883Z,8.63
2018-03-24T19:23:32.292Z,14.67
2018-03-24T19:26:02.262Z,14.80
2018-03-24T19:28:32.079Z,11.60
2018-03-24T19:31:01.775Z,11.43
2018-03-24T19:33:31.703Z,14.33
2018-03-24T19:36:01.516Z,14.90
2018-03-24T19:38:31.381Z,12.33
2018-03-24T19:41:01.555Z,11.13
2018-03-24T19:43:31.435Z,11.57
2018-03-24T19:46:01.114Z,12.87
2018-03-24T19:48:32.051Z,12.80
2018-03-24T19:51:01.886Z,13.52
2018-03-24T19:53:31.731Z,11.17
2018-03-24T19:56:01.823Z,12.30
2018-03-24T19:58:31.727Z,14.20
2018-03-24T20:01:02.469Z,14.33
2018-03-24T20:03:32.381Z,13.10
2018-03-24T20:06:02.172Z,14.77
2018-03-24T20:08:32.909Z,11.83
2018-03-24T20:11:02.779Z,12.37
2018-03-24T20:13:32.663Z,11.37
2018-03-24T20:16:03.292Z,15.60
2018-03-24T20:18:33.839Z,13.30
2018-03-24T20:21:03.542Z,14.37
2018-03-24T20:23:33.284Z,14.53
2018-03-24T20:26:03.235Z,15.27
2018-03-24T20:28:33.918Z,12.10
2018-03-24T20:31:03.678Z,11.20
2018-03-24T20:33:33.568Z,10.07
2018-03-24T20:36:03.433Z,13.00
2018-03-24T20:38:33.456Z,11.63
2018-03-24T20:41:03.557Z,11.40
2018-03-24T20:43:34.498Z,12.33
2018-03-24T20:46:05.110Z,10.97
2018-03-24T20:48:35.167Z,8.67
2018-03-24T20:51:05.193Z,11.07
2018-03-24T20:53:34.569Z,10.53
2018-03-24T20:56:03.770Z,11.50
2018-03-24T20:58:33.033Z,13.73
2018-03-24T21:01:02.432Z,9.37
2018-03-24T21:03:32.280Z,15.40
2018-03-24T21:06:02.142Z,11.63
2018-03-24T21:08:32.028Z,13.90
2018-03-24T21:11:01.913Z,11.00
2018-03-24T21:13:32.502Z,13.60
2018-03-24T21:16:02.448Z,10.73
2018-03-24T21:18:33.105Z,13.50
2018-03-24T21:21:03.389Z,13.67
2018-03-24T21:23:33.317Z,10.17
2018-03-24T21:26:04.053Z,14.70
2018-03-24T21:28:34.689Z,13.43
2018-03-24T21:31:05.597Z,12.60
2018-03-24T21:33:35.394Z,11.50
2018-03-24T21:36:05.383Z,10.57
2018-03-24T21:38:35.896Z,11.67
2018-03-24T21:41:06.446Z,14.90
2018-03-24T21:43:36.260Z,11.93
2018-03-24T21:46:06.121Z,10.98
2018-03-24T21:48:35.937Z,13.40
2018-03-24T21:51:06.469Z,10.67
2018-03-24T21:53:36.336Z,10.00
2018-03-24T21:56:06.341Z,10.68
2018-03-24T21:58:35.999Z,12.37
2018-03-24T22:01:05.909Z,11.07
2018-03-24T22:03:35.907Z,11.57
2018-03-24T22:06:05.946Z,15.30
2018-03-24T22:08:35.745Z,15.17
2018-03-24T22:11:05.568Z,14.87
2018-03-24T22:13:35.176Z,13.93
2018-03-24T22:16:05.300Z,10.97
2018-03-24T22:18:35.444Z,12.80
2018-03-24T22:21:06.159Z,15.30
2018-03-24T22:23:36.670Z,19.70
2018-03-24T22:26:05.130Z,12.10
2018-03-24T22:28:34.200Z,13.27
2018-03-24T22:31:02.569Z,11.33
2018-03-24T22:33:30.852Z,12.20
2018-03-24T22:35:59.111Z,10.63
2018-03-24T22:38:27.401Z,11.93
2018-03-24T22:40:55.715Z,14.30
2018-03-24T22:43:23.975Z,11.97
2018-03-24T22:45:52.244Z,15.10
2018-03-24T22:48:20.503Z,12.30
2018-03-24T22:50:48.804Z,12.73
2018-03-24T22:53:17.051Z,16.40
2018-03-24T22:55:45.306Z,14.07
2018-03-24T22:58:13.596Z,14.10
2018-03-24T23:00:41.861Z,13.10
2018-03-24T23:03:10.125Z,13.80
2018-03-24T23:05:39.144Z,12.73
2018-03-24T23:08:07.430Z,15.13
2018-03-24T23:10:35.694Z,10.73
2018-03-24T23:13:03.972Z,15.53
2018-03-24T23:15:32.254Z,15.67
2018-03-24T23:18:00.553Z,13.50
2018-03-24T23:20:28.828Z,12.30
2018-03-24T23:22:57.092Z,11.77
2018-03-24T23:25:25.363Z,13.70
2018-03-24T23:27:54.200Z,11.40
2018-03-24T23:30:22.447Z,18.25
2018-03-24T23:32:50.712Z,15.20
2018-03-24T23:35:18.965Z,13.90
2018-03-24T23:37:47.232Z,14.30
2018-03-24T23:40:15.488Z,11.73
2018-03-24T23:42:44.508Z,14.03
2018-03-24T23:45:12.776Z,15.97
2018-03-24T23:47:41.024Z,15.13
2018-03-24T23:50:09.291Z,15.63
2018-03-24T23:52:37.564Z,12.57
2018-03-24T23:55:05.823Z,11.33
2018-03-24T23:57:34.152Z,17.93
